Time;durP1;ratioP1;P1;durP2;ratioP2;P2;SDS_P1;SDS_P2;PMS_P1;PMS_P2;Temp;Humidity;BMP_temperature;BMP_pressure;BME280_temperature;BME280_humidity;BME280_pressure;Samples;Min_cycle;Max_cycle;Signal;HPM_P1;HPM_P2
2022/11/25 00:00:04;;;;;;;;;;;;;;;;;;2209481;59;2047;-73
2022/11/25 00:02:37;;;;;;;;;;;;;;;;;;2212823;59;1429;-73
2022/11/25 00:05:13;;;;;;;;;;;;;;;;;;2212514;59;1025;-73
2022/11/25 00:07:46;;;;;;;;;;;;;;;;;;2214177;66;1083;-72
2022/11/25 00:10:19;;;;;;;;;;;;;;;;;;2213172;59;1267;-72
2022/11/25 00:12:53;;;;;;;;;;;;;;;;;;2213369;59;1331;-72
2022/11/25 00:15:26;;;;;;;;;;;;;;;;;;2212754;59;1935;-72
2022/11/25 00:17:59;;;;;;;;;;;;;;;;;;2212869;66;1062;-72
2022/11/25 00:20:35;;;;;;;;;;;;;;;;;;2212863;66;1230;-72
2022/11/25 00:23:08;;;;;;;;;;;;;;;;;;2212202;59;1197;-72
2022/11/25 00:25:41;;;;;;;;;;;;;;;;;;2211816;59;1211;-73
2022/11/25 00:28:14;;;;;;;;;;;;;;;;;;2212512;66;1147;-72
2022/11/25 00:30:47;;;;;;;;;;;;;;;;;;2213386;58;1187;-73
2022/11/25 00:33:20;;;;;;;;;;;;;;;;;;2212787;59;1266;-73
2022/11/25 00:35:56;;;;;;;;;;;;;;;;;;2214231;66;1943;-72
2022/11/25 00:38:29;;;;;;;;;;;;;;;;;;2213899;66;1136;-72
2022/11/25 00:46:40;;;;;;;;;;;;;;;;;;2212873;59;1496;-73
2022/11/25 00:49:13;;;;;;;;;;;;;;;;;;2212570;66;1160;-73
2022/11/25 00:51:49;;;;;;;;;;;;;;;;;;2212775;66;1234;-72
2022/11/25 00:54:22;;;;;;;;;;;;;;;;;;2212688;66;1931;-72
2022/11/25 00:56:55;;;;;;;;;;;;;;;;;;2212240;59;1048;-72
2022/11/25 00:59:28;;;;;;;;;;;;;;;;;;2212685;66;1197;-73
2022/11/25 01:02:02;;;;;;;;;;;;;;;;;;2211910;59;1437;-72
2022/11/25 01:04:35;;;;;;;;;;;;;;;;;;2212994;59;1046;-73
2022/11/25 01:07:11;;;;;;;;;;;;;;;;;;2213169;59;1017;-72
2022/11/25 01:09:44;;;;;;;;;;;;;;;;;;2214331;66;1246;-73
2022/11/25 01:12:17;;;;;;;;;;;;;;;;;;2212792;59;1113;-72
2022/11/25 01:14:50;;;;;;;;;;;;;;;;;;2212854;66;1995;-73
2022/11/25 01:17:23;;;;;;;;;;;;;;;;;;2212756;66;1095;-72
2022/11/25 01:19:56;;;;;;;;;;;;;;;;;;2213055;66;1248;-72
2022/11/25 01:22:32;;;;;;;;;;;;;;;;;;2212984;66;1210;-72
2022/11/25 01:25:06;;;;;;;;;;;;;;;;;;2211257;59;1579;-72
2022/11/25 01:27:41;;;;;;;;;;;;;;;;;;2211898;59;1099;-73
2022/11/25 01:30:15;;;;;;;;;;;;;;;;;;2212195;59;1270;-72
2022/11/25 01:32:48;;;;;;;;;;;;;;;;;;2212976;66;1131;-72
2022/11/25 01:35:21;;;;;;;;;;;;;;;;;;2212652;66;1937;-72
2022/11/25 01:37:57;;;;;;;;;;;;;;;;;;2214471;66;1212;-72
2022/11/25 01:40:30;;;;;;;;;;;;;;;;;;2213555;59;1223;-72
2022/11/25 01:43:03;;;;;;;;;;;;;;;;;;2213896;58;1206;-72
2022/11/25 01:45:38;;;;;;;;;;;;;;;;;;2214500;66;1047;-72
2022/11/25 01:48:14;;;;;;;;;;;;;;;;;;2212869;59;1117;-72
2022/11/25 01:50:49;;;;;;;;;;;;;;;;;;2214331;59;1245;-72
2022/11/25 01:53:25;;;;;;;;;;;;;;;;;;2212168;66;1238;-72
2022/11/25 01:56:01;;;;;;;;;;;;;;;;;;2214401;59;1997;-72
2022/11/25 01:58:35;;;;;;;;;;;;;;;;;;2215057;59;1321;-72
2022/11/25 02:01:09;;;;;;;;;;;;;;;;;;2213885;59;1448;-72
2022/11/25 02:03:44;;;;;;;;;;;;;;;;;;2214104;66;1180;-72
2022/11/25 02:06:21;;;;;;;;;;;;;;;;;;2214204;59;1114;-72
2022/11/25 02:08:59;;;;;;;;;;;;;;;;;;2213325;66;1104;-72
2022/11/25 02:11:32;;;;;;;;;;;;;;;;;;2213113;59;1254;-73
2022/11/25 02:14:06;;;;;;;;;;;;;;;;;;2213576;59;1418;-72
2022/11/25 02:16:39;;;;;;;;;;;;;;;;;;2213672;66;2449;-75
2022/11/25 02:19:16;;;;;;;;;;;;;;;;;;2214201;66;1170;-72
2022/11/25 02:21:52;;;;;;;;;;;;;;;;;;2211040;66;1342;-72
2022/11/25 02:24:31;;;;;;;;;;;;;;;;;;2213569;59;1225;-73
2022/11/25 02:27:08;;;;;;;;;;;;;;;;;;2214076;59;1381;-72
2022/11/25 02:29:42;;;;;;;;;;;;;;;;;;2214120;59;1299;-73
2022/11/25 02:32:15;;;;;;;;;;;;;;;;;;2214136;66;1158;-73
2022/11/25 02:34:49;;;;;;;;;;;;;;;;;;2214136;66;2000;-72
2022/11/25 02:37:25;;;;;;;;;;;;;;;;;;2214194;66;1220;-73
2022/11/25 02:39:58;;;;;;;;;;;;;;;;;;2213659;59;1197;-73
2022/11/25 02:42:34;;;;;;;;;;;;;;;;;;2211889;59;1407;-72
2022/11/25 02:45:12;;;;;;;;;;;;;;;;;;2212695;59;1222;-73
2022/11/25 02:47:45;;;;;;;;;;;;;;;;;;2213595;59;1150;-72
2022/11/25 02:50:18;;;;;;;;;;;;;;;;;;2213540;66;1292;-72
2022/11/25 02:52:52;;;;;;;;;;;;;;;;;;2214057;66;1162;-72
2022/11/25 02:55:25;;;;;;;;;;;;;;;;;;2212783;59;1939;-73
2022/11/25 02:58:01;;;;;;;;;;;;;;;;;;2213719;59;1112;-72
2022/11/25 03:00:34;;;;;;;;;;;;;;;;;;2213060;59;1525;-72
2022/11/25 03:03:08;;;;;;;;;;;;;;;;;;2213309;66;1116;-72
2022/11/25 03:05:41;;;;;;;;;;;;;;;;;;2213643;59;1064;-72
2022/11/25 03:08:15;;;;;;;;;;;;;;;;;;2213943;66;1229;-72
2022/11/25 03:10:48;;;;;;;;;;;;;;;;;;2212987;59;1243;-72
2022/11/25 03:13:24;;;;;;;;;;;;;;;;;;2212737;66;1254;-72
2022/11/25 03:15:57;;;;;;;;;;;;;;;;;;2212809;66;1961;-73
2022/11/25 03:18:30;;;;;;;;;;;;;;;;;;2212845;66;1212;-72
2022/11/25 03:21:03;;;;;;;;;;;;;;;;;;2212794;66;1199;-72
2022/11/25 03:23:36;;;;;;;;;;;;;;;;;;2213295;59;1170;-73
2022/11/25 03:26:09;;;;;;;;;;;;;;;;;;2213142;66;1181;-73
2022/11/25 03:28:45;;;;;;;;;;;;;;;;;;2212665;59;1335;-72
2022/11/25 03:41:58;;;;;;;;;;;;;;;;;;2259518;59;1576;-72
2022/11/25 03:44:34;;;;;;;;;;;;;;;;;;2210741;59;1136;-72
2022/11/25 03:47:07;;;;;;;;;;;;;;;;;;2211838;59;1300;-72
2022/11/25 03:49:41;;;;;;;;;;;;;;;;;;2212311;66;1087;-72
2022/11/25 03:52:14;;;;;;;;;;;;;;;;;;2209796;66;1283;-72
2022/11/25 03:54:47;;;;;;;;;;;;;;;;;;2208581;67;1116;-73
2022/11/25 03:57:20;;;;;;;;;;;;;;;;;;2205103;59;1989;-73
2022/11/25 03:59:56;;;;;;;;;;;;;;;;;;2209064;67;1123;-72
2022/11/25 04:02:29;;;;;;;;;;;;;;;;;;2208734;59;1419;-72
2022/11/25 04:05:04;;;;;;;;;;;;;;;;;;2208891;59;1031;-73
2022/11/25 04:07:37;;;;;;;;;;;;;;;;;;2208861;67;1069;-72
2022/11/25 04:10:10;;;;;;;;;;;;;;;;;;2208292;67;1239;-73
2022/11/25 04:12:51;;;;;;;;;;;;;;;;;;2209034;59;1292;-73
2022/11/25 04:15:27;;;;;;;;;;;;;;;;;;2208540;67;1933;-72
2022/11/25 04:18:00;;;;;;;;;;;;;;;;;;2208473;59;1128;-72
2022/11/25 04:20:33;;;;;;;;;;;;;;;;;;2209167;67;1225;-73
2022/11/25 04:23:07;;;;;;;;;;;;;;;;;;2208526;59;1215;-72
2022/11/25 04:25:40;;;;;;;;;;;;;;;;;;2208872;67;1001;-72
2022/11/25 04:28:14;;;;;;;;;;;;;;;;;;2208257;67;1156;-73
2022/11/25 04:30:50;;;;;;;;;;;;;;;;;;2208785;67;1204;-72
2022/11/25 04:33:23;;;;;;;;;;;;;;;;;;2208507;59;1144;-72
2022/11/25 04:35:56;;;;;;;;;;;;;;;;;;2209080;59;1994;-72
2022/11/25 04:38:29;;;;;;;;;;;;;;;;;;2208744;67;1092;-73
2022/11/25 04:41:02;;;;;;;;;;;;;;;;;;2209464;59;1196;-73
2022/11/25 04:43:35;;;;;;;;;;;;;;;;;;2208942;67;1232;-72
2022/11/25 04:46:16;;;;;;;;;;;;;;;;;;2208549;59;1227;-72
2022/11/25 04:48:49;;;;;;;;;;;;;;;;;;2208939;67;952;-72
2022/11/25 04:51:22;;;;;;;;;;;;;;;;;;2208787;67;1265;-72
2022/11/25 04:53:55;;;;;;;;;;;;;;;;;;2208371;59;1327;-72
2022/11/25 04:56:28;;;;;;;;;;;;;;;;;;2207726;59;1988;-72
2022/11/25 05:01:53;;;;;;;;;;;;;;;;;;2208744;59;1496;-72
2022/11/25 05:04:26;;;;;;;;;;;;;;;;;;2208794;59;1158;-72
2022/11/25 05:06:59;;;;;;;;;;;;;;;;;;2209155;67;1092;-72
2022/11/25 05:09:32;;;;;;;;;;;;;;;;;;2206601;59;1914;-72
2022/11/25 05:12:06;;;;;;;;;;;;;;;;;;2207834;59;1195;-73
2022/11/25 05:14:39;;;;;;;;;;;;;;;;;;2209044;67;1106;-72
2022/11/25 05:17:17;;;;;;;;;;;;;;;;;;2208894;59;1993;-72
2022/11/25 05:19:50;;;;;;;;;;;;;;;;;;2209267;67;1101;-72
2022/11/25 05:22:24;;;;;;;;;;;;;;;;;;2208079;59;2071;-72
2022/11/25 05:24:57;;;;;;;;;;;;;;;;;;2205337;59;1780;-72
2022/11/25 05:27:31;;;;;;;;;;;;;;;;;;2203348;59;1776;-73
2022/11/25 05:30:04;;;;;;;;;;;;;;;;;;2208228;67;1163;-72
2022/11/25 05:32:40;;;;;;;;;;;;;;;;;;2207862;67;1049;-72
2022/11/25 05:35:13;;;;;;;;;;;;;;;;;;2208138;59;1158;-72
2022/11/25 05:37:46;;;;;;;;;;;;;;;;;;2208834;67;1949;-72
2022/11/25 05:40:19;;;;;;;;;;;;;;;;;;2208555;59;1372;-72
2022/11/25 05:42:52;;;;;;;;;;;;;;;;;;2209063;59;1704;-72
2022/11/25 05:45:25;;;;;;;;;;;;;;;;;;2209147;59;1420;-72
2022/11/25 05:48:01;;;;;;;;;;;;;;;;;;2208962;59;1207;-72
2022/11/25 05:50:34;;;;;;;;;;;;;;;;;;2209657;67;1205;-73
2022/11/25 05:53:08;;;;;;;;;;;;;;;;;;2208037;59;1664;-73
2022/11/25 05:55:41;;;;;;;;;;;;;;;;;;2207258;59;2213;-72
2022/11/25 05:58:14;;;;;;;;;;;;;;;;;;2208010;59;2007;-72
2022/11/25 06:00:47;;;;;;;;;;;;;;;;;;2208947;59;1543;-72
2022/11/25 06:03:25;;;;;;;;;;;;;;;;;;2208063;59;1779;-72
2022/11/25 06:05:58;;;;;;;;;;;;;;;;;;2208621;59;1079;-72
2022/11/25 06:08:32;;;;;;;;;;;;;;;;;;2209319;67;1205;-72
2022/11/25 06:11:06;;;;;;;;;;;;;;;;;;2208815;59;1124;-72
2022/11/25 06:13:39;;;;;;;;;;;;;;;;;;2210356;59;1210;-72
2022/11/25 06:16:14;;;;;;;;;;;;;;;;;;2208793;67;1998;-72
2022/11/25 06:18:50;;;;;;;;;;;;;;;;;;2208747;67;1101;-72
2022/11/25 06:21:23;;;;;;;;;;;;;;;;;;2209357;67;1169;-72
2022/11/25 06:23:56;;;;;;;;;;;;;;;;;;2208316;59;1879;-73
2022/11/25 06:26:29;;;;;;;;;;;;;;;;;;2209694;67;1214;-72
2022/11/25 06:29:02;;;;;;;;;;;;;;;;;;2208922;59;1140;-72
2022/11/25 06:31:36;;;;;;;;;;;;;;;;;;2208988;67;1209;-72
2022/11/25 06:34:11;;;;;;;;;;;;;;;;;;2208478;67;1128;-72
2022/11/25 06:36:45;;;;;;;;;;;;;;;;;;2209100;67;1987;-72
2022/11/25 06:39:18;;;;;;;;;;;;;;;;;;2207923;59;1704;-72
2022/11/25 06:41:51;;;;;;;;;;;;;;;;;;2209380;59;1120;-72
2022/11/25 06:44:24;;;;;;;;;;;;;;;;;;2208760;59;1107;-72
2022/11/25 06:46:57;;;;;;;;;;;;;;;;;;2203091;59;2297;-72
2022/11/25 06:49:33;;;;;;;;;;;;;;;;;;2205247;59;1863;-72
2022/11/25 06:52:06;;;;;;;;;;;;;;;;;;2207210;59;1809;-72
2022/11/25 06:54:40;;;;;;;;;;;;;;;;;;2207773;59;1800;-72
2022/11/25 06:57:14;;;;;;;;;;;;;;;;;;2207890;59;1932;-72
2022/11/25 06:59:47;;;;;;;;;;;;;;;;;;2208815;59;1145;-73
2022/11/25 07:02:20;;;;;;;;;;;;;;;;;;2208452;59;1293;-72
2022/11/25 07:04:56;;;;;;;;;;;;;;;;;;2207732;59;1228;-72
2022/11/25 07:07:29;;;;;;;;;;;;;;;;;;2207448;59;1733;-72
2022/11/25 07:10:02;;;;;;;;;;;;;;;;;;2207961;59;1967;-72
2022/11/25 07:12:36;;;;;;;;;;;;;;;;;;2208525;59;1093;-72
2022/11/25 07:15:09;;;;;;;;;;;;;;;;;;2207553;59;1102;-72
2022/11/25 07:17:42;;;;;;;;;;;;;;;;;;2209189;67;1914;-72
2022/11/25 07:20:18;;;;;;;;;;;;;;;;;;2208695;67;1171;-72
2022/11/25 07:22:51;;;;;;;;;;;;;;;;;;2208624;59;1293;-72
2022/11/25 07:25:24;;;;;;;;;;;;;;;;;;2208087;59;1720;-72
2022/11/25 07:27:58;;;;;;;;;;;;;;;;;;2203991;59;1693;-73
2022/11/25 07:30:31;;;;;;;;;;;;;;;;;;2208197;59;1278;-73
2022/11/25 07:33:04;;;;;;;;;;;;;;;;;;2208261;67;1012;-72
2022/11/25 07:35:40;;;;;;;;;;;;;;;;;;2208749;59;1178;-72
2022/11/25 07:38:13;;;;;;;;;;;;;;;;;;2207115;59;1923;-72
2022/11/25 07:40:49;;;;;;;;;;;;;;;;;;2207548;59;1310;-72
2022/11/25 07:43:22;;;;;;;;;;;;;;;;;;2208937;67;1211;-72
2022/11/25 07:45:55;;;;;;;;;;;;;;;;;;2208169;67;1103;-72
2022/11/25 07:48:29;;;;;;;;;;;;;;;;;;2208890;59;1218;-72
2022/11/25 07:51:04;;;;;;;;;;;;;;;;;;2204521;67;1101;-72
2022/11/25 07:53:38;;;;;;;;;;;;;;;;;;2208011;59;1874;-72
2022/11/25 07:56:11;;;;;;;;;;;;;;;;;;2208854;59;1306;-72
2022/11/25 07:58:44;;;;;;;;;;;;;;;;;;2208103;59;1987;-72
2022/11/25 08:01:18;;;;;;;;;;;;;;;;;;2207453;59;1395;-72
2022/11/25 08:03:52;;;;;;;;;;;;;;;;;;2208279;59;1165;-73
2022/11/25 08:06:29;;;;;;;;;;;;;;;;;;2208327;59;1235;-73
2022/11/25 08:09:02;;;;;;;;;;;;;;;;;;2207567;59;1375;-72
2022/11/25 08:11:36;;;;;;;;;;;;;;;;;;2207753;59;1159;-72
2022/11/25 08:14:09;;;;;;;;;;;;;;;;;;2208070;59;1225;-72
2022/11/25 08:16:43;;;;;;;;;;;;;;;;;;2208163;59;1987;-73
2022/11/25 08:19:18;;;;;;;;;;;;;;;;;;2205485;59;1790;-72
2022/11/25 08:21:54;;;;;;;;;;;;;;;;;;2208251;67;1304;-72
2022/11/25 08:24:27;;;;;;;;;;;;;;;;;;2208242;59;1247;-72
2022/11/25 08:27:00;;;;;;;;;;;;;;;;;;2209172;67;1104;-72
2022/11/25 08:29:33;;;;;;;;;;;;;;;;;;2206361;59;2484;-72
2022/11/25 08:32:08;;;;;;;;;;;;;;;;;;2209015;67;1260;-72
2022/11/25 08:34:41;;;;;;;;;;;;;;;;;;2208782;59;1000;-72
2022/11/25 08:37:17;;;;;;;;;;;;;;;;;;2207980;67;1925;-73
2022/11/25 08:39:50;;;;;;;;;;;;;;;;;;2208937;67;1154;-73
2022/11/25 08:42:24;;;;;;;;;;;;;;;;;;2208641;59;1509;-72
2022/11/25 08:44:57;;;;;;;;;;;;;;;;;;2204253;59;1646;-73
2022/11/25 08:47:30;;;;;;;;;;;;;;;;;;2209687;67;1069;-73
2022/11/25 08:50:04;;;;;;;;;;;;;;;;;;2205884;59;1850;-73
2022/11/25 08:52:39;;;;;;;;;;;;;;;;;;2205209;59;1813;-73
2022/11/25 08:55:13;;;;;;;;;;;;;;;;;;2204757;59;1584;-73
2022/11/25 08:57:46;;;;;;;;;;;;;;;;;;2206691;59;2000;-73
2022/11/25 09:00:20;;;;;;;;;;;;;;;;;;2208459;59;1491;-73
2022/11/25 09:02:53;;;;;;;;;;;;;;;;;;2208422;67;2516;-72
2022/11/25 09:05:26;;;;;;;;;;;;;;;;;;2206567;59;2199;-73
2022/11/25 09:08:02;;;;;;;;;;;;;;;;;;2204752;59;1847;-73
2022/11/25 09:10:36;;;;;;;;;;;;;;;;;;2208749;59;1844;-73
2022/11/25 09:13:09;;;;;;;;;;;;;;;;;;2205347;59;1899;-72
2022/11/25 09:15:42;;;;;;;;;;;;;;;;;;2206811;59;1651;-72
2022/11/25 09:18:18;;;;;;;;;;;;;;;;;;2206283;59;1953;-72
2022/11/25 09:20:51;;;;;;;;;;;;;;;;;;2208322;59;1616;-72
2022/11/25 09:23:27;;;;;;;;;;;;;;;;;;2206717;59;1223;-72
2022/11/25 09:26:00;;;;;;;;;;;;;;;;;;2209067;59;1117;-72
2022/11/25 09:28:34;;;;;;;;;;;;;;;;;;2209250;67;1084;-73
2022/11/25 09:31:11;;;;;;;;;;;;;;;;;;2209146;67;1281;-73
2022/11/25 09:33:44;;;;;;;;;;;;;;;;;;2205320;67;1388;-73
2022/11/25 09:36:18;;;;;;;;;;;;;;;;;;2209398;67;1166;-73
2022/11/25 09:38:54;;;;;;;;;;;;;;;;;;2209545;67;2006;-73
2022/11/25 10:05:07;;;;;;;;;;;;;;;;;;2193512;59;1293;-76
2022/11/25 10:41:04;;;;;;;;;;;;;;;;;;2212201;59;1265;-76
2022/11/25 10:43:52;;;;;;;;;;;;;;;;;;2209872;59;1052;-76
2022/11/25 10:46:31;;;;;;;;;;;;;;;;;;2214755;53;2039;-73
2022/11/25 10:49:08;;;;;;;;;;;;;;;;;;2214628;66;1019;-73
2022/11/25 10:51:45;;;;;;;;;;;;;;;;;;2215591;58;1188;-73
2022/11/25 10:54:21;;;;;;;;;;;;;;;;;;2214470;66;1188;-73
2022/11/25 10:56:55;;;;;;;;;;;;;;;;;;2214678;58;1419;-73
2022/11/25 10:59:33;;;;;;;;;;;;;;;;;;2213756;66;1937;-73
2022/11/25 11:02:17;;;;;;;;;;;;;;;;;;2214012;59;1772;-73
2022/11/25 11:04:58;;;;;;;;;;;;;;;;;;2214168;58;1080;-73
2022/11/25 11:07:32;;;;;;;;;;;;;;;;;;2214535;66;1207;-72
2022/11/25 11:10:16;;;;;;;;;;;;;;;;;;2214586;66;1326;-72
2022/11/25 11:12:56;;;;;;;;;;;;;;;;;;2214700;58;1368;-72
2022/11/25 11:15:33;;;;;;;;;;;;;;;;;;2215332;66;1255;-73
2022/11/25 11:18:16;;;;;;;;;;;;;;;;;;2214613;66;1939;-73
2022/11/25 11:20:50;;;;;;;;;;;;;;;;;;2214883;66;967;-73
2022/11/25 11:23:23;;;;;;;;;;;;;;;;;;2214476;58;1187;-72
2022/11/25 11:25:58;;;;;;;;;;;;;;;;;;2214667;58;1288;-73
2022/11/25 11:28:33;;;;;;;;;;;;;;;;;;2214512;66;1190;-73
2022/11/25 11:31:17;;;;;;;;;;;;;;;;;;2214492;59;1045;-73
2022/11/25 11:33:54;;;;;;;;;;;;;;;;;;2215253;58;1348;-73
2022/11/25 11:36:35;;;;;;;;;;;;;;;;;;2214455;66;1289;-73
2022/11/25 11:39:19;;;;;;;;;;;;;;;;;;2214737;66;1940;-73
2022/11/25 11:41:57;;;;;;;;;;;;;;;;;;2214465;59;1109;-73
2022/11/25 11:44:35;;;;;;;;;;;;;;;;;;2214776;66;1145;-73
2022/11/25 11:47:15;;;;;;;;;;;;;;;;;;2214976;58;1289;-73
2022/11/25 11:50:06;;;;;;;;;;;;;;;;;;2215149;59;1084;-73
2022/11/25 11:52:47;;;;;;;;;;;;;;;;;;2214036;59;1242;-73
2022/11/25 11:55:28;;;;;;;;;;;;;;;;;;2214657;58;1263;-73
2022/11/25 11:58:04;;;;;;;;;;;;;;;;;;2215444;58;1980;-73
2022/11/25 12:00:45;;;;;;;;;;;;;;;;;;2214734;59;1144;-74
2022/11/25 12:03:23;;;;;;;;;;;;;;;;;;2216505;66;1238;-73
2022/11/25 12:05:58;;;;;;;;;;;;;;;;;;2214534;58;1209;-73
2022/11/25 12:08:36;;;;;;;;;;;;;;;;;;2215117;66;1130;-73
2022/11/25 12:11:13;;;;;;;;;;;;;;;;;;2214704;58;1127;-73
2022/11/25 12:13:49;;;;;;;;;;;;;;;;;;2214689;59;1145;-73
2022/11/25 12:16:26;;;;;;;;;;;;;;;;;;2214899;66;1188;-73
2022/11/25 12:19:07;;;;;;;;;;;;;;;;;;2215586;66;1924;-73
2022/11/25 12:21:44;;;;;;;;;;;;;;;;;;2214962;66;1294;-73
2022/11/25 12:24:20;;;;;;;;;;;;;;;;;;2214120;58;1218;-73
2022/11/25 12:26:57;;;;;;;;;;;;;;;;;;2214994;66;1240;-73
2022/11/25 12:29:35;;;;;;;;;;;;;;;;;;2214086;66;1162;-73
2022/11/25 12:32:17;;;;;;;;;;;;;;;;;;2215306;66;1115;-73
2022/11/25 12:34:58;;;;;;;;;;;;;;;;;;2214505;59;1304;-73
2022/11/25 12:37:33;;;;;;;;;;;;;;;;;;2214819;66;1210;-73
2022/11/25 12:40:11;;;;;;;;;;;;;;;;;;2214301;66;2005;-73
2022/11/25 12:42:45;;;;;;;;;;;;;;;;;;2215115;66;1096;-73
2022/11/25 12:45:22;;;;;;;;;;;;;;;;;;2214302;59;1314;-73
2022/11/25 12:47:56;;;;;;;;;;;;;;;;;;2215228;66;1064;-73
2022/11/25 12:50:39;;;;;;;;;;;;;;;;;;2214612;66;1279;-73
2022/11/25 12:53:17;;;;;;;;;;;;;;;;;;2214608;58;1137;-73
2022/11/25 12:55:51;;;;;;;;;;;;;;;;;;2214309;58;1505;-73
2022/11/25 12:58:38;;;;;;;;;;;;;;;;;;2214652;59;1939;-73
2022/11/25 13:01:30;;;;;;;;;;;;;;;;;;2215110;58;1060;-73
2022/11/25 13:04:25;;;;;;;;;;;;;;;;;;2214202;58;1045;-73
2022/11/25 13:07:22;;;;;;;;;;;;;;;;;;2214881;60;1230;-73
2022/11/25 13:10:14;;;;;;;;;;;;;;;;;;2214884;66;1018;-72
2022/11/25 13:12:51;;;;;;;;;;;;;;;;;;2214497;58;1060;-73
2022/11/25 13:15:27;;;;;;;;;;;;;;;;;;2215148;59;1189;-73
2022/11/25 13:18:03;;;;;;;;;;;;;;;;;;2214668;66;1137;-73
2022/11/25 13:20:44;;;;;;;;;;;;;;;;;;2215266;66;1943;-73
2022/11/25 13:23:38;;;;;;;;;;;;;;;;;;2214594;58;1142;-73
2022/11/25 13:26:31;;;;;;;;;;;;;;;;;;2214609;66;1292;-73
2022/11/25 13:29:34;;;;;;;;;;;;;;;;;;2214173;66;1521;-73
2022/11/25 13:32:25;;;;;;;;;;;;;;;;;;2215369;66;1169;-73
2022/11/25 13:35:17;;;;;;;;;;;;;;;;;;2214464;58;1671;-73
2022/11/25 13:37:51;;;;;;;;;;;;;;;;;;2213052;58;1864;-73
2022/11/25 13:40:33;;;;;;;;;;;;;;;;;;2214587;66;1925;-73
2022/11/25 13:43:07;;;;;;;;;;;;;;;;;;2210783;58;1707;-73
2022/11/25 13:45:44;;;;;;;;;;;;;;;;;;2214452;59;1233;-72
2022/11/25 13:48:20;;;;;;;;;;;;;;;;;;2213452;58;1623;-73
2022/11/25 13:50:53;;;;;;;;;;;;;;;;;;2214195;59;1824;-73
2022/11/25 13:53:31;;;;;;;;;;;;;;;;;;2210108;58;2381;-73
2022/11/25 13:56:14;;;;;;;;;;;;;;;;;;2213239;58;1526;-73
2022/11/25 13:59:02;;;;;;;;;;;;;;;;;;2213137;58;1949;-73
2022/11/25 14:01:38;;;;;;;;;;;;;;;;;;2211527;58;2064;-72
2022/11/25 14:04:12;;;;;;;;;;;;;;;;;;2211687;58;1598;-72
2022/11/25 14:06:53;;;;;;;;;;;;;;;;;;2213456;66;1212;-73
2022/11/25 14:09:35;;;;;;;;;;;;;;;;;;2212777;59;1068;-72
2022/11/25 14:12:27;;;;;;;;;;;;;;;;;;2212131;59;1549;-72
2022/11/25 14:15:15;;;;;;;;;;;;;;;;;;2213718;58;2513;-72
2022/11/25 14:18:01;;;;;;;;;;;;;;;;;;2214337;58;2128;-72
2022/11/25 14:20:41;;;;;;;;;;;;;;;;;;2215553;58;2026;-72
2022/11/25 14:23:30;;;;;;;;;;;;;;;;;;2213604;58;2004;-73
2022/11/25 14:26:06;;;;;;;;;;;;;;;;;;2211291;59;1601;-73
2022/11/25 14:28:41;;;;;;;;;;;;;;;;;;2214333;66;1149;-72
2022/11/25 14:31:17;;;;;;;;;;;;;;;;;;2213817;66;1168;-72
2022/11/25 14:33:57;;;;;;;;;;;;;;;;;;2214580;58;1438;-73
2022/11/25 14:36:33;;;;;;;;;;;;;;;;;;2213899;58;1273;-72
2022/11/25 14:39:07;;;;;;;;;;;;;;;;;;2213905;59;2030;-72
2022/11/25 14:41:43;;;;;;;;;;;;;;;;;;2213874;66;1070;-72
2022/11/25 14:44:20;;;;;;;;;;;;;;;;;;2213773;66;1170;-72
2022/11/25 14:46:54;;;;;;;;;;;;;;;;;;2214432;59;1204;-72
2022/11/25 14:52:37;;;;;;;;;;;;;;;;;;2214784;58;2465;-72
2022/11/25 14:55:10;;;;;;;;;;;;;;;;;;2210596;66;2584;-72
2022/11/25 14:57:45;;;;;;;;;;;;;;;;;;2213218;66;1210;-72
2022/11/25 15:00:19;;;;;;;;;;;;;;;;;;2213112;58;1209;-72
2022/11/25 15:02:55;;;;;;;;;;;;;;;;;;2209189;59;1470;-72
2022/11/25 15:05:32;;;;;;;;;;;;;;;;;;2213300;66;1219;-71
2022/11/25 15:08:11;;;;;;;;;;;;;;;;;;2213284;66;1034;-71
2022/11/25 15:10:50;;;;;;;;;;;;;;;;;;2214002;59;1983;-71
2022/11/25 15:13:32;;;;;;;;;;;;;;;;;;2211304;59;2249;-72
2022/11/25 15:16:08;;;;;;;;;;;;;;;;;;2212508;66;1282;-71
2022/11/25 15:18:46;;;;;;;;;;;;;;;;;;2213399;66;1114;-71
2022/11/25 15:21:22;;;;;;;;;;;;;;;;;;2208025;59;1639;-72
2022/11/25 15:23:58;;;;;;;;;;;;;;;;;;2211044;59;1125;-71
2022/11/25 15:26:32;;;;;;;;;;;;;;;;;;2208413;59;1480;-71
2022/11/25 15:29:12;;;;;;;;;;;;;;;;;;2212481;66;1138;-71
2022/11/25 15:31:47;;;;;;;;;;;;;;;;;;2211194;66;2646;-71
2022/11/25 15:34:21;;;;;;;;;;;;;;;;;;2212783;59;1382;-71
2022/11/25 15:36:54;;;;;;;;;;;;;;;;;;2210022;66;1231;-71
2022/11/25 15:39:30;;;;;;;;;;;;;;;;;;2208833;58;1753;-71
2022/11/25 15:42:07;;;;;;;;;;;;;;;;;;2211549;59;1712;-72
2022/11/25 15:44:42;;;;;;;;;;;;;;;;;;2213332;59;988;-71
2022/11/25 15:47:19;;;;;;;;;;;;;;;;;;2208742;66;1253;-71
2022/11/25 15:49:57;;;;;;;;;;;;;;;;;;2213536;59;1048;-71
2022/11/25 15:52:32;;;;;;;;;;;;;;;;;;2224420;58;1998;-71
2022/11/25 15:55:09;;;;;;;;;;;;;;;;;;2226456;58;1394;-71
2022/11/25 15:57:44;;;;;;;;;;;;;;;;;;2227920;58;1842;-71
2022/11/25 16:00:18;;;;;;;;;;;;;;;;;;2228250;66;1149;-71
2022/11/25 16:02:53;;;;;;;;;;;;;;;;;;2226555;58;1774;-71
2022/11/25 16:05:31;;;;;;;;;;;;;;;;;;2225049;58;1168;-71
2022/11/25 16:08:25;;;;;;;;;;;;;;;;;;2226987;58;1048;-71
2022/11/25 16:11:11;;;;;;;;;;;;;;;;;;2225802;66;1932;-71
2022/11/25 16:13:44;;;;;;;;;;;;;;;;;;2227095;66;1169;-71
2022/11/25 16:16:20;;;;;;;;;;;;;;;;;;2225785;58;1734;-71
2022/11/25 16:18:59;;;;;;;;;;;;;;;;;;2226932;66;1069;-72
2022/11/25 16:21:40;;;;;;;;;;;;;;;;;;2226777;66;990;-71
2022/11/25 16:24:16;;;;;;;;;;;;;;;;;;2222475;58;1446;-71
2022/11/25 16:26:56;;;;;;;;;;;;;;;;;;2225988;58;1621;-71
2022/11/25 16:29:32;;;;;;;;;;;;;;;;;;2225453;66;1187;-71
2022/11/25 16:32:14;;;;;;;;;;;;;;;;;;2224100;66;2685;-71
2022/11/25 16:34:47;;;;;;;;;;;;;;;;;;2226308;58;2728;-72
2022/11/25 16:37:20;;;;;;;;;;;;;;;;;;2226569;59;1219;-71
2022/11/25 16:39:53;;;;;;;;;;;;;;;;;;2226181;58;2000;-71
2022/11/25 16:42:29;;;;;;;;;;;;;;;;;;2225133;66;1220;-71
2022/11/25 16:45:02;;;;;;;;;;;;;;;;;;2226826;66;1165;-71
2022/11/25 16:47:36;;;;;;;;;;;;;;;;;;2224767;58;1792;-72
2022/11/25 16:50:13;;;;;;;;;;;;;;;;;;2225706;58;1230;-71
2022/11/25 16:52:46;;;;;;;;;;;;;;;;;;2225505;58;1927;-71
2022/11/25 16:55:19;;;;;;;;;;;;;;;;;;2225961;58;1231;-71
2022/11/25 16:57:56;;;;;;;;;;;;;;;;;;2226625;58;1521;-71
2022/11/25 17:00:29;;;;;;;;;;;;;;;;;;2222696;58;1083;-71
2022/11/25 17:03:02;;;;;;;;;;;;;;;;;;2225729;58;1501;-71
2022/11/25 17:05:35;;;;;;;;;;;;;;;;;;2227094;58;1345;-71
2022/11/25 17:08:08;;;;;;;;;;;;;;;;;;2226719;66;1085;-71
2022/11/25 17:10:42;;;;;;;;;;;;;;;;;;2227496;66;1992;-71
2022/11/25 17:13:22;;;;;;;;;;;;;;;;;;2220430;58;1769;-71
2022/11/25 17:15:55;;;;;;;;;;;;;;;;;;2223261;66;1398;-71
2022/11/25 17:18:28;;;;;;;;;;;;;;;;;;2225710;66;1088;-71
2022/11/25 17:21:01;;;;;;;;;;;;;;;;;;2226658;58;1135;-71
2022/11/25 17:23:34;;;;;;;;;;;;;;;;;;2227191;58;1163;-72
2022/11/25 17:26:07;;;;;;;;;;;;;;;;;;2224990;58;1557;-72
2022/11/25 17:28:43;;;;;;;;;;;;;;;;;;2217973;58;1728;-71
2022/11/25 17:31:17;;;;;;;;;;;;;;;;;;2226033;66;1932;-71
2022/11/25 17:33:50;;;;;;;;;;;;;;;;;;2225876;58;1570;-71
2022/11/25 17:36:25;;;;;;;;;;;;;;;;;;2226151;66;1249;-71
2022/11/25 17:38:58;;;;;;;;;;;;;;;;;;2226310;66;1064;-71
2022/11/25 17:41:32;;;;;;;;;;;;;;;;;;2225607;58;1145;-71
2022/11/25 17:44:11;;;;;;;;;;;;;;;;;;2223677;58;2371;-71
2022/11/25 17:46:44;;;;;;;;;;;;;;;;;;2226342;66;1284;-71
2022/11/25 17:49:18;;;;;;;;;;;;;;;;;;2226376;66;1225;-71
2022/11/25 17:51:51;;;;;;;;;;;;;;;;;;2225658;58;1929;-71
2022/11/25 17:54:24;;;;;;;;;;;;;;;;;;2224777;58;1583;-71
2022/11/25 17:56:57;;;;;;;;;;;;;;;;;;2226098;59;1168;-71
2022/11/25 17:59:35;;;;;;;;;;;;;;;;;;2225793;66;1095;-72
2022/11/25 18:02:12;;;;;;;;;;;;;;;;;;2225777;58;1360;-71
2022/11/25 18:04:45;;;;;;;;;;;;;;;;;;2226789;66;1067;-72
2022/11/25 18:07:19;;;;;;;;;;;;;;;;;;2223925;58;2013;-71
2022/11/25 18:09:52;;;;;;;;;;;;;;;;;;2222100;58;1473;-71
2022/11/25 18:12:29;;;;;;;;;;;;;;;;;;2221849;59;1937;-72
2022/11/25 18:15:07;;;;;;;;;;;;;;;;;;2225936;66;991;-71
2022/11/25 18:17:40;;;;;;;;;;;;;;;;;;2226396;58;1313;-72
2022/11/25 18:20:17;;;;;;;;;;;;;;;;;;2226157;58;1096;-72
2022/11/25 18:22:51;;;;;;;;;;;;;;;;;;2225229;58;1925;-71
2022/11/25 18:25:26;;;;;;;;;;;;;;;;;;2224591;58;1611;-71
2022/11/25 18:28:00;;;;;;;;;;;;;;;;;;2225658;66;966;-71
2022/11/25 18:30:37;;;;;;;;;;;;;;;;;;2222585;66;1492;-71
2022/11/25 18:33:12;;;;;;;;;;;;;;;;;;2225226;58;1979;-71
2022/11/25 18:35:46;;;;;;;;;;;;;;;;;;2225737;66;1256;-71
2022/11/25 18:38:19;;;;;;;;;;;;;;;;;;2225009;66;1190;-72
2022/11/25 18:40:52;;;;;;;;;;;;;;;;;;2224947;58;1119;-72
2022/11/25 18:43:28;;;;;;;;;;;;;;;;;;2219077;59;1906;-71
2022/11/25 18:46:04;;;;;;;;;;;;;;;;;;2224781;58;1757;-72
2022/11/25 18:48:37;;;;;;;;;;;;;;;;;;2225388;66;1087;-71
2022/11/25 18:51:13;;;;;;;;;;;;;;;;;;2223719;58;1341;-71
2022/11/25 18:53:46;;;;;;;;;;;;;;;;;;2224491;58;1522;-71
2022/11/25 18:56:19;;;;;;;;;;;;;;;;;;2225814;58;1300;-71
2022/11/25 18:58:53;;;;;;;;;;;;;;;;;;2225286;58;1514;-72
2022/11/25 19:01:29;;;;;;;;;;;;;;;;;;2224965;58;1194;-71
2022/11/25 19:04:03;;;;;;;;;;;;;;;;;;2224539;58;1065;-71
2022/11/25 19:06:36;;;;;;;;;;;;;;;;;;2224794;66;1200;-71
2022/11/25 19:09:09;;;;;;;;;;;;;;;;;;2220703;58;1165;-71
2022/11/25 19:11:44;;;;;;;;;;;;;;;;;;2225424;58;1990;-72
2022/11/25 19:14:26;;;;;;;;;;;;;;;;;;2223420;58;1799;-71
2022/11/25 19:17:03;;;;;;;;;;;;;;;;;;2225728;58;1155;-72
2022/11/25 19:19:38;;;;;;;;;;;;;;;;;;2224501;58;1725;-71